Time;durP1;ratioP1;P1;durP2;ratioP2;P2;SDS_P1;SDS_P2;PMS_P1;PMS_P2;Temp;Humidity;BMP_temperature;BMP_pressure;BME280_temperature;BME280_humidity;BME280_pressure;Samples;Min_cycle;Max_cycle;Signal;HPM_P1;HPM_P2
2022/06/03 00:00:07;;;;;;;7.88;5.25;;;;;;;13.97;61.36;101752.09;5024686;28;20041;-73
2022/06/03 00:02:57;;;;;;;6.05;5.40;;;;;;;14.02;61.21;101754.13;5036410;28;20496;-75
2022/06/03 00:06:04;;;;;;;6.43;5.45;;;;;;;13.99;60.98;101750.81;5054502;28;20108;-73
2022/06/03 00:08:45;;;;;;;5.90;5.35;;;;;;;13.92;61.83;101750.06;5044296;28;20045;-72
2022/06/03 00:11:30;;;;;;;7.18;5.40;;;;;;;13.94;60.96;101758.81;5054159;28;20037;-72
2022/06/03 00:14:25;;;;;;;11.20;5.78;;;;;;;13.90;61.35;101751.31;5054130;28;20108;-73
2022/06/03 00:17:12;;;;;;;7.60;5.43;;;;;;;13.87;61.71;101749.88;5054339;28;20415;-72
2022/06/03 00:20:07;;;;;;;6.45;5.32;;;;;;;13.87;61.57;101751.78;5054051;28;20045;-72
2022/06/03 00:23:03;;;;;;;6.95;5.47;;;;;;;13.86;61.83;101756.41;5053439;28;20045;-73
2022/06/03 00:26:08;;;;;;;6.22;5.38;;;;;;;13.90;61.68;101754.88;5053892;28;20123;-73
2022/06/03 00:29:03;;;;;;;7.53;5.68;;;;;;;13.83;61.33;101745.97;5037561;28;20037;-73
2022/06/03 00:32:15;;;;;;;6.85;5.45;;;;;;;13.87;61.21;101746.34;5053759;28;20460;-73
2022/06/03 00:35:09;;;;;;;6.03;5.28;;;;;;;13.80;61.86;101747.22;5016347;28;20037;-73
2022/06/03 00:38:10;;;;;;;7.05;5.43;;;;;;;13.76;62.25;101754.16;5020531;28;20086;-73
2022/06/03 00:41:09;;;;;;;6.18;5.40;;;;;;;13.77;62.25;101752.31;5054262;28;20036;-73
2022/06/03 00:43:42;;;;;;;6.03;5.40;;;;;;;13.63;63.17;101736.09;5053769;28;20454;-73
2022/06/03 00:46:33;;;;;;;7.32;5.35;;;;;;;13.69;62.21;101745.22;5053180;28;20456;-73
2022/06/03 00:49:14;;;;;;;7.22;5.30;;;;;;;13.61;62.68;101753.69;5053776;28;20037;-73
2022/06/03 00:52:22;;;;;;;6.88;5.57;;;;;;;13.59;62.57;101743.03;5054057;28;20465;-73
2022/06/03 00:55:12;;;;;;;6.28;5.25;;;;;;;13.59;62.73;101745.75;4989739;28;20056;-73
2022/06/03 00:57:47;;;;;;;7.20;5.30;;;;;;;13.49;63.25;101745.44;5053056;28;20357;-73
2022/06/03 01:00:27;;;;;;;5.78;5.28;;;;;;;13.49;63.30;101741.88;5047327;28;20461;-73
2022/06/03 01:03:04;;;;;;;6.25;5.50;;;;;;;13.47;63.22;101750.25;5051710;28;20033;-73
2022/06/03 01:05:40;;;;;;;5.97;5.47;;;;;;;13.35;64.40;101736.56;5053174;28;20044;-73
2022/06/03 01:08:20;;;;;;;8.02;5.57;;;;;;;13.41;64.18;101743.81;5045554;28;20025;-73
2022/06/03 01:10:45;;;;;;;6.32;5.65;;;;;;;13.39;63.85;101735.06;5053092;28;20064;-73
2022/06/03 01:13:31;;;;;;;7.43;5.70;;;;;;;13.40;63.63;101733.16;5053453;28;20057;-73
2022/06/03 01:16:19;;;;;;;6.80;5.78;;;;;;;13.40;63.61;101734.00;5053148;28;20500;-73
2022/06/03 01:19:25;;;;;;;8.88;5.88;;;;;;;13.44;63.22;101727.06;5052781;28;20033;-73
2022/06/03 01:22:33;;;;;;;6.20;5.65;;;;;;;13.44;63.61;101721.63;5051399;28;20439;-73
2022/06/03 01:25:18;;;;;;;7.05;5.60;;;;;;;13.41;63.79;101721.25;5033317;28;20030;-73
2022/06/03 01:28:01;;;;;;;7.45;6.18;;;;;;;13.40;64.19;101711.41;5038024;28;20025;-73
2022/06/03 01:30:36;;;;;;;7.85;5.22;;;;;;;13.39;64.03;101712.47;5052519;28;20060;-73
2022/06/03 01:33:19;;;;;;;5.75;4.88;;;;;;;13.39;64.00;101701.59;5052403;28;20036;-73
2022/06/03 01:36:04;;;;;;;5.95;5.35;;;;;;;13.37;63.69;101701.81;5052611;28;20033;-73
2022/06/03 01:38:50;;;;;;;5.90;5.30;;;;;;;13.41;63.77;101713.91;5052653;28;20413;-73
2022/06/03 01:41:54;;;;;;;6.10;5.50;;;;;;;13.43;63.55;101703.63;5053155;28;20108;-73
2022/06/03 01:44:26;;;;;;;7.55;5.25;;;;;;;13.36;63.90;101697.44;5017133;28;20084;-73
2022/06/03 01:47:25;;;;;;;9.13;5.75;;;;;;;13.43;64.33;101698.19;5032945;28;20465;-73
2022/06/03 01:50:25;;;;;;;6.15;5.40;;;;;;;13.39;64.28;101691.56;5032591;28;20029;-73
2022/06/03 01:53:22;;;;;;;5.97;5.45;;;;;;;13.37;63.95;101696.38;4999489;28;20049;-73
2022/06/03 01:56:16;;;;;;;7.75;5.55;;;;;;;13.30;64.67;101701.84;5052316;28;20159;-73
2022/06/03 01:58:48;;;;;;;6.97;5.80;;;;;;;13.29;65.03;101702.06;5052311;28;20074;-73
2022/06/03 02:02:04;;;;;;;5.70;5.10;;;;;;;13.33;63.99;101691.56;5049739;28;20065;-73
2022/06/03 02:04:39;;;;;;;6.18;5.63;;;;;;;13.22;65.59;101696.69;5052149;28;20036;-73
2022/06/03 02:07:50;;;;;;;6.50;5.57;;;;;;;13.26;64.82;101697.91;5052626;28;20031;-73
2022/06/03 02:10:40;;;;;;;8.13;5.90;;;;;;;13.17;65.94;101690.28;5051702;28;20033;-73
2022/06/03 02:13:29;;;;;;;6.90;6.07;;;;;;;13.12;65.94;101674.63;5047966;28;20041;-73
2022/06/03 02:16:13;;;;;;;6.30;5.78;;;;;;;13.03;66.87;101671.34;5052191;28;20513;-73
2022/06/03 02:19:22;;;;;;;6.43;5.72;;;;;;;13.05;66.52;101682.81;5052141;28;20033;-73
2022/06/03 02:22:13;;;;;;;6.57;5.88;;;;;;;13.04;66.63;101688.47;5051906;28;20049;-73
2022/06/03 02:25:03;;;;;;;6.93;5.60;;;;;;;12.99;66.35;101686.41;5051490;28;20056;-73
2022/06/03 02:27:59;;;;;;;7.82;5.97;;;;;;;12.97;66.89;101683.09;5052069;28;20033;-73
2022/06/03 02:31:02;;;;;;;6.60;5.97;;;;;;;12.97;66.02;101679.53;5040293;28;20031;-73
2022/06/03 02:33:42;;;;;;;6.35;5.70;;;;;;;12.93;68.00;101677.25;5052240;28;20036;-73
2022/06/03 02:36:45;;;;;;;6.32;5.68;;;;;;;12.97;67.64;101676.81;5052351;28;20029;-73
2022/06/03 02:39:13;;;;;;;6.22;5.38;;;;;;;12.92;68.13;101685.63;5052131;28;20041;-72
2022/06/03 02:42:12;;;;;;;8.77;6.13;;;;;;;12.90;67.99;101677.69;5051996;28;20427;-73
2022/06/03 02:44:52;;;;;;;7.68;5.95;;;;;;;12.89;67.48;101675.22;5051804;28;20045;-73
2022/06/03 02:47:32;;;;;;;6.53;5.85;;;;;;;12.83;67.71;101671.50;5052297;28;20029;-73
2022/06/03 02:50:17;;;;;;;6.15;5.57;;;;;;;12.85;67.62;101657.72;5031970;28;20037;-73
2022/06/03 02:52:59;;;;;;;7.18;5.95;;;;;;;12.86;68.12;101665.63;5037635;28;20033;-73
2022/06/03 02:55:45;;;;;;;8.00;5.93;;;;;;;12.83;68.76;101668.78;5051888;28;20025;-73
2022/06/03 02:58:30;;;;;;;8.93;6.20;;;;;;;12.78;69.40;101668.59;5051554;28;20033;-73
2022/06/03 03:01:23;;;;;;;6.18;5.50;;;;;;;12.83;68.55;101670.66;5049534;28;20059;-73
2022/06/03 03:04:09;;;;;;;6.93;5.85;;;;;;;12.77;68.54;101666.94;5045862;28;20029;-73
2022/06/03 03:06:49;;;;;;;6.97;6.30;;;;;;;12.72;68.95;101664.06;5051815;28;20122;-73
2022/06/03 03:09:53;;;;;;;6.95;6.25;;;;;;;12.72;69.24;101678.44;5054730;28;20111;-73
2022/06/03 03:12:49;;;;;;;7.05;5.93;;;;;;;12.70;69.09;101679.75;5055718;28;20037;-73
2022/06/03 03:15:39;;;;;;;6.93;6.22;;;;;;;12.70;69.54;101672.41;5035839;28;20072;-73
2022/06/03 03:18:18;;;;;;;8.23;6.18;;;;;;;12.65;69.68;101664.09;5040328;28;20500;-73
2022/06/03 03:21:21;;;;;;;8.07;6.30;;;;;;;12.67;69.20;101661.19;5055112;28;20029;-73
2022/06/03 03:23:57;;;;;;;7.10;6.10;;;;;;;12.66;69.71;101662.22;5054945;28;20123;-73
2022/06/03 03:27:00;;;;;;;7.88;6.28;;;;;;;12.68;69.87;101666.38;5055295;28;20064;-73
2022/06/03 03:29:59;;;;;;;7.10;6.43;;;;;;;12.66;69.70;101654.88;5055079;28;20477;-73
2022/06/03 03:32:31;;;;;;;8.23;6.30;;;;;;;12.58;70.20;101647.84;5055417;28;20037;-73
2022/06/03 03:35:12;;;;;;;7.25;6.55;;;;;;;12.61;70.39;101646.59;5055156;28;20033;-73
2022/06/03 03:38:20;;;;;;;7.28;6.57;;;;;;;12.61;69.73;101649.28;5036817;28;20374;-73
2022/06/03 03:41:00;;;;;;;7.60;6.28;;;;;;;12.59;70.18;101649.53;5054956;28;20086;-73
2022/06/03 03:43:53;;;;;;;7.18;6.25;;;;;;;12.58;70.18;101642.41;5055007;28;20036;-73
2022/06/03 03:46:30;;;;;;;7.00;6.22;;;;;;;12.55;70.59;101647.47;5055174;28;20025;-73
2022/06/03 03:49:30;;;;;;;8.65;6.57;;;;;;;12.57;70.63;101650.78;5054908;28;20033;-73
2022/06/03 03:52:10;;;;;;;8.07;6.28;;;;;;;12.48;71.86;101644.78;5055064;28;20029;-73
2022/06/03 03:54:45;;;;;;;7.95;6.85;;;;;;;12.47;70.93;101642.28;5054121;28;20029;-73
2022/06/03 03:57:50;;;;;;;8.98;7.07;;;;;;;12.51;71.16;101649.75;5055212;28;20083;-73
2022/06/03 04:01:01;;;;;;;7.40;6.70;;;;;;;12.50;70.94;101642.69;5034990;28;20034;-73
2022/06/03 04:03:44;;;;;;;9.85;7.40;;;;;;;12.46;71.99;101646.88;4940870;29;20398;-73
2022/06/03 04:06:30;;;;;;;8.77;7.05;;;;;;;12.48;71.26;101642.06;4954154;29;20486;-73
2022/06/03 04:09:34;;;;;;;7.47;6.70;;;;;;;12.49;71.82;101632.06;5026621;28;20090;-73
2022/06/03 04:12:33;;;;;;;8.65;6.90;;;;;;;12.49;71.74;101638.31;5054618;28;20033;-72
2022/06/03 04:14:59;;;;;;;8.95;6.63;;;;;;;12.43;71.83;101633.75;5054531;28;20025;-73
2022/06/03 04:17:56;;;;;;;14.27;6.90;;;;;;;12.45;71.97;101638.97;5054582;28;20032;-72
2022/06/03 04:20:32;;;;;;;8.75;6.95;;;;;;;12.39;72.54;101627.94;5054649;28;20317;-73
2022/06/03 04:23:21;;;;;;;11.45;7.00;;;;;;;12.46;72.02;101633.31;5054255;28;20106;-73
2022/06/03 04:26:14;;;;;;;8.50;6.80;;;;;;;12.48;72.07;101631.19;5053830;28;20059;-73
2022/06/03 04:29:34;;;;;;;9.10;6.70;;;;;;;12.49;72.27;101616.59;5053861;28;20023;-73
2022/06/03 04:32:04;;;;;;;10.23;7.10;;;;;;;12.50;72.33;101623.69;5053963;28;20040;-73
2022/06/03 04:34:48;;;;;;;9.00;6.97;;;;;;;12.52;72.81;101618.84;5054137;28;20057;-73
2022/06/03 04:37:45;;;;;;;9.77;6.85;;;;;;;12.53;72.81;101620.53;5054173;28;20094;-73
2022/06/03 04:40:26;;;;;;;7.60;6.80;;;;;;;12.56;73.21;101628.25;5053916;28;20059;-72
2022/06/03 04:43:42;;;;;;;8.90;6.90;;;;;;;12.61;72.17;101633.00;5053696;28;20504;-73
2022/06/03 04:46:44;;;;;;;10.52;6.70;;;;;;;12.65;72.65;101642.38;5052441;28;20392;-73
2022/06/03 04:49:29;;;;;;;9.82;7.18;;;;;;;12.71;72.90;101643.38;5053527;28;20025;-73
2022/06/03 04:52:41;;;;;;;9.30;7.07;;;;;;;12.75;72.74;101641.88;5053442;28;20443;-73
2022/06/03 04:55:16;;;;;;;9.23;6.93;;;;;;;12.76;73.11;101654.41;5053609;28;20373;-73
2022/06/03 04:58:30;;;;;;;9.23;7.03;;;;;;;12.81;72.47;101646.44;5053217;28;20049;-73
2022/06/03 05:01:01;;;;;;;8.77;7.03;;;;;;;12.80;73.39;101643.94;5031241;28;20037;-73
2022/06/03 05:04:04;;;;;;;8.48;7.18;;;;;;;12.88;72.98;101632.81;5039630;28;20033;-73
2022/06/03 05:06:54;;;;;;;10.25;7.63;;;;;;;12.90;72.58;101634.25;5053414;28;20025;-73
2022/06/03 05:09:49;;;;;;;8.88;7.45;;;;;;;12.91;73.22;101640.53;5053180;28;20029;-73
2022/06/03 05:12:48;;;;;;;9.43;7.43;;;;;;;12.96;73.27;101637.13;5042014;28;20080;-73
2022/06/03 05:15:49;;;;;;;10.43;7.38;;;;;;;13.00;72.89;101633.75;5053495;28;20029;-73
2022/06/03 05:18:26;;;;;;;10.52;7.97;;;;;;;13.00;73.58;101639.19;5052798;28;20671;-73
2022/06/03 05:21:18;;;;;;;10.60;8.07;;;;;;;13.04;73.61;101634.94;5052964;28;20053;-73
2022/06/03 05:23:51;;;;;;;14.52;8.18;;;;;;;13.08;72.89;101632.66;5053084;28;20089;-73
2022/06/03 05:26:45;;;;;;;7.97;7.18;;;;;;;13.17;72.73;101625.88;5053222;28;20033;-73
2022/06/03 05:29:24;;;;;;;8.40;7.45;;;;;;;13.24;72.16;101623.94;5052953;28;20029;-73
2022/06/03 05:32:27;;;;;;;10.93;7.60;;;;;;;13.34;73.00;101622.59;5052464;28;20491;-73
2022/06/03 05:35:13;;;;;;;9.50;7.10;;;;;;;13.42;73.05;101620.44;5052159;28;20028;-74
2022/06/03 05:38:23;;;;;;;8.80;7.95;;;;;;;13.49;72.69;101620.34;5011446;28;20044;-73
2022/06/03 05:40:58;;;;;;;10.88;8.10;;;;;;;13.50;72.89;101621.16;5012208;28;20473;-74
2022/06/03 05:44:05;;;;;;;10.57;7.60;;;;;;;13.59;72.02;101625.28;5044736;28;20025;-73
2022/06/03 05:47:03;;;;;;;8.65;7.43;;;;;;;13.65;72.13;101625.19;5023985;28;20472;-73
2022/06/03 05:49:31;;;;;;;11.57;7.78;;;;;;;13.66;72.33;101620.56;5052811;28;20076;-74
2022/06/03 05:52:36;;;;;;;8.18;7.30;;;;;;;13.75;72.12;101619.25;5052659;28;20496;-73
2022/06/03 05:55:30;;;;;;;8.43;7.32;;;;;;;13.79;71.92;101616.88;5052602;28;20056;-73
2022/06/03 05:58:13;;;;;;;11.85;8.07;;;;;;;13.85;71.77;101626.84;5050626;28;20036;-74
2022/06/03 06:00:43;;;;;;;8.43;6.82;;;;;;;13.92;71.65;101627.59;5030423;28;20025;-74
2022/06/03 06:03:53;;;;;;;10.02;7.57;;;;;;;13.99;71.64;101631.09;5034977;28;20030;-74
2022/06/03 06:06:31;;;;;;;13.25;7.78;;;;;;;14.02;71.60;101618.88;5021509;28;20037;-74
2022/06/03 06:09:19;;;;;;;13.70;7.78;;;;;;;14.14;71.63;101621.66;5052048;28;20059;-74
2022/06/03 06:11:59;;;;;;;10.32;7.85;;;;;;;14.15;71.30;101621.44;5040688;28;20380;-74
2022/06/03 06:14:52;;;;;;;9.82;7.60;;;;;;;14.24;71.85;101621.97;5047520;28;20630;-74
2022/06/03 06:17:38;;;;;;;8.77;7.82;;;;;;;14.28;70.61;101628.59;5052050;28;20025;-73
2022/06/03 06:20:36;;;;;;;9.43;7.60;;;;;;;14.33;70.64;101626.00;5051466;28;20578;-73
2022/06/03 06:23:16;;;;;;;10.52;7.93;;;;;;;14.30;71.03;101628.38;5022945;28;20041;-73
2022/06/03 06:26:12;;;;;;;12.00;7.57;;;;;;;14.42;69.94;101637.41;5032553;28;20037;-73
2022/06/03 06:28:56;;;;;;;9.68;7.68;;;;;;;14.47;70.03;101628.53;5045148;28;20071;-74
2022/06/03 06:31:39;;;;;;;11.05;7.75;;;;;;;14.55;69.98;101625.47;5052099;28;20033;-72
2022/06/03 06:34:32;;;;;;;8.57;7.38;;;;;;;14.58;69.90;101621.47;5051560;28;20037;-72
2022/06/03 06:37:30;;;;;;;8.52;7.28;;;;;;;14.65;69.70;101630.41;5051900;28;20104;-70
2022/06/03 06:40:08;;;;;;;8.25;7.45;;;;;;;14.71;70.03;101626.75;5048834;28;20056;-73
2022/06/03 06:42:51;;;;;;;11.60;7.53;;;;;;;14.78;68.56;101623.91;5051626;28;20060;-73
2022/06/03 06:45:22;;;;;;;11.43;7.35;;;;;;;14.84;68.57;101622.97;5045060;28;20036;-73
2022/06/03 06:47:59;;;;;;;11.20;6.97;;;;;;;14.94;68.60;101620.50;5056032;28;20037;-76
2022/06/03 06:50:40;;;;;;;11.07;7.18;;;;;;;15.03;68.70;101619.06;5055752;28;20037;-75
2022/06/03 06:53:10;;;;;;;12.55;7.28;;;;;;;15.13;68.66;101623.13;5055525;28;20099;-75
2022/06/03 06:56:01;;;;;;;7.68;6.85;;;;;;;15.17;67.77;101625.16;5055577;28;20476;-74
2022/06/03 06:58:43;;;;;;;15.02;6.90;;;;;;;15.30;67.57;101626.78;5051915;28;20048;-77
2022/06/03 07:01:12;;;;;;;11.00;6.80;;;;;;;15.33;66.32;101625.50;5053030;28;20029;-73
2022/06/03 07:04:00;;;;;;;10.52;6.75;;;;;;;15.39;67.52;101630.81;5055569;28;20060;-73
2022/06/03 07:06:35;;;;;;;7.47;6.32;;;;;;;15.42;66.57;101626.78;5055567;28;20040;-73
2022/06/03 07:09:09;;;;;;;10.93;6.47;;;;;;;15.49;65.83;101627.50;5055080;28;20020;-73
2022/06/03 07:11:43;;;;;;;8.65;6.60;;;;;;;15.53;65.68;101616.94;5055315;28;20036;-72
2022/06/03 07:14:18;;;;;;;9.25;7.07;;;;;;;15.56;65.55;101621.91;5037828;28;20403;-73
2022/06/03 07:19:58;;;;;;;9.13;6.22;;;;;;;15.73;65.23;101611.06;5055746;28;20102;-72
2022/06/03 07:22:45;;;;;;;7.88;5.70;;;;;;;15.88;65.48;101614.19;5055493;28;20073;-73
2022/06/03 07:25:25;;;;;;;9.40;6.20;;;;;;;15.91;64.71;101607.38;5054597;28;20473;-74
2022/06/03 07:28:06;;;;;;;9.73;6.30;;;;;;;16.00;64.66;101614.09;5055064;28;20083;-73
2022/06/03 07:30:45;;;;;;;11.43;6.32;;;;;;;16.02;64.34;101605.69;5037514;28;20036;-74
2022/06/03 07:33:32;;;;;;;9.30;6.70;;;;;;;16.07;64.31;101612.06;5055153;28;20029;-73
2022/06/03 07:36:07;;;;;;;9.63;6.70;;;;;;;16.11;64.30;101613.25;5037659;28;20029;-77
2022/06/03 07:38:46;;;;;;;8.93;6.30;;;;;;;16.19;63.87;101613.94;5055333;28;20110;-80
2022/06/03 07:41:28;;;;;;;11.25;7.35;;;;;;;16.25;63.24;101608.31;5055071;28;20028;-76
2022/06/03 07:44:00;;;;;;;10.10;6.63;;;;;;;16.35;63.28;101609.56;5054688;28;20044;-75
2022/06/03 07:47:00;;;;;;;9.30;6.95;;;;;;;16.37;62.72;101611.00;5054647;28;20029;-81
2022/06/03 07:49:29;;;;;;;10.50;6.57;;;;;;;16.45;63.03;101605.13;5037825;28;20036;-75
2022/06/03 07:51:59;;;;;;;13.45;7.43;;;;;;;16.50;62.71;101598.94;5042776;28;20033;-80
2022/06/03 07:54:32;;;;;;;8.18;6.45;;;;;;;16.54;62.44;101602.81;5053339;28;20430;-81
2022/06/03 07:57:10;;;;;;;9.45;6.72;;;;;;;16.61;62.70;101611.69;5054227;28;20033;-74
2022/06/03 07:59:43;;;;;;;8.52;7.05;;;;;;;16.60;62.67;101617.41;5054926;28;20120;-77
2022/06/03 08:02:11;;;;;;;10.38;7.75;;;;;;;16.70;62.57;101609.41;5050677;28;20060;-81
2022/06/03 08:04:41;;;;;;;12.27;8.02;;;;;;;16.78;61.93;101599.94;5053551;28;20082;-80
2022/06/03 08:13:02;;;;;;;9.65;7.95;;;;;;;16.93;61.76;101593.94;5054025;28;20498;-74
2022/06/03 08:15:30;;;;;;;12.65;7.60;;;;;;;16.99;61.46;101582.00;5054202;28;20115;-76
2022/06/03 08:17:57;;;;;;;9.73;8.13;;;;;;;17.05;61.64;101572.78;5054347;28;20105;-77
2022/06/03 08:20:25;;;;;;;9.05;8.15;;;;;;;17.21;62.98;101565.66;5046027;28;20025;-76
2022/06/03 08:22:52;;;;;;;12.57;8.57;;;;;;;17.23;62.76;101570.88;5053621;28;20049;-76
2022/06/03 08:25:24;;;;;;;9.93;8.25;;;;;;;17.40;62.86;101562.59;5037758;28;20029;-76
2022/06/03 08:27:50;;;;;;;10.43;9.15;;;;;;;17.41;61.80;101570.56;5042287;28;20070;-78
2022/06/03 08:30:23;;;;;;;14.55;8.80;;;;;;;17.41;62.53;101573.28;5054629;28;20025;-78
2022/06/03 08:33:02;;;;;;;9.85;7.60;;;;;;;17.40;62.03;101560.69;5054369;28;20029;-76
2022/06/03 08:35:33;;;;;;;9.95;8.75;;;;;;;17.43;61.28;101573.84;5034382;28;20068;-77
2022/06/03 08:38:10;;;;;;;11.63;8.30;;;;;;;17.45;61.61;101566.25;5028993;28;20044;-76
2022/06/03 08:41:06;;;;;;;10.00;7.93;;;;;;;17.52;61.63;101577.00;5052995;28;20078;-78
2022/06/03 08:44:00;;;;;;;11.63;8.40;;;;;;;17.65;60.86;101575.78;5053981;28;20448;-76
2022/06/03 08:46:55;;;;;;;11.10;7.57;;;;;;;17.77;60.51;101562.78;5051921;28;20514;-74
2022/06/03 08:49:26;;;;;;;8.48;7.57;;;;;;;17.86;59.83;101563.16;5053012;28;20056;-73
2022/06/03 08:52:05;;;;;;;10.73;7.68;;;;;;;17.98;60.12;101572.09;5053416;28;20040;-73
2022/06/03 08:54:38;;;;;;;10.05;8.30;;;;;;;18.06;59.74;101581.75;5053545;28;20488;-73
2022/06/03 08:57:44;;;;;;;9.57;8.05;;;;;;;18.09;59.52;101577.66;5046610;28;20112;-76
2022/06/03 09:00:12;;;;;;;9.85;7.45;;;;;;;18.22;58.43;101569.88;5044995;28;20025;-74
2022/06/03 09:02:48;;;;;;;13.27;8.07;;;;;;;18.35;59.46;101565.06;5051075;28;20123;-76
2022/06/03 09:05:25;;;;;;;9.48;8.05;;;;;;;18.40;59.06;101576.06;5052660;28;20426;-75
2022/06/03 09:08:16;;;;;;;10.18;8.73;;;;;;;18.42;58.69;101574.72;5053186;28;20025;-75
2022/06/03 09:10:42;;;;;;;12.68;8.50;;;;;;;18.48;57.97;101566.53;5053466;28;20465;-74
2022/06/03 09:13:31;;;;;;;8.85;7.32;;;;;;;18.64;58.58;101564.75;5052909;28;20029;-76
2022/06/03 09:15:58;;;;;;;7.80;7.00;;;;;;;18.68;56.36;101566.72;5053065;28;20029;-75
2022/06/03 09:18:34;;;;;;;8.05;6.55;;;;;;;18.76;55.37;101573.63;5052651;28;20044;-75
2022/06/03 09:21:12;;;;;;;9.82;7.45;;;;;;;18.84;55.77;101573.16;5052567;28;20151;-75
2022/06/03 09:23:42;;;;;;;7.60;6.45;;;;;;;18.90;54.39;101574.88;5052802;28;20057;-75
2022/06/03 09:26:17;;;;;;;8.52;7.28;;;;;;;18.90;54.86;101572.13;5051797;28;20059;-75
2022/06/03 09:28:43;;;;;;;10.95;7.38;;;;;;;18.95;54.27;101576.81;5053083;28;20035;-75
2022/06/03 09:31:12;;;;;;;9.35;6.70;;;;;;;19.02;54.51;101571.09;5053204;28;20033;-75
2022/06/03 09:33:40;;;;;;;12.00;6.95;;;;;;;19.12;53.65;101568.41;5035255;28;20024;-75
2022/06/03 09:36:14;;;;;;;9.40;6.18;;;;;;;19.23;52.54;101567.38;5052930;28;20024;-75
2022/06/03 09:38:46;;;;;;;10.77;7.10;;;;;;;19.35;52.86;101564.41;5035026;28;20037;-75
2022/06/03 09:41:12;;;;;;;10.52;6.43;;;;;;;19.45;52.40;101555.44;5052410;28;20469;-75
2022/06/03 09:43:42;;;;;;;7.82;4.80;;;;;;;19.49;51.13;101553.81;5053086;28;20058;-76
2022/06/03 09:46:13;;;;;;;6.17;4.43;;;;;;;19.60;51.33;101555.47;5052719;28;20039;-74
2022/06/03 09:48:42;;;;;;;9.80;6.25;;;;;;;19.68;51.95;101550.56;5041751;28;20022;-74
2022/06/03 09:51:20;;;;;;;6.07;5.25;;;;;;;19.74;50.45;101558.53;5049287;28;20045;-74
2022/06/03 09:53:46;;;;;;;6.65;5.40;;;;;;;19.78;49.78;101561.63;5052577;28;20060;-74
2022/06/03 09:56:21;;;;;;;7.38;5.00;;;;;;;19.81;49.90;101552.84;5052382;28;20468;-74
2022/06/03 09:58:49;;;;;;;6.80;5.13;;;;;;;19.87;50.50;101554.50;5052323;28;20021;-74
2022/06/03 10:01:15;;;;;;;4.75;4.30;;;;;;;19.98;47.96;101549.88;5050098;28;20025;-75
2022/06/03 10:03:40;;;;;;;7.82;4.88;;;;;;;20.10;48.63;101546.88;5051301;28;20029;-75
2022/06/03 10:06:42;;;;;;;7.63;4.85;;;;;;;20.17;48.14;101541.94;5052334;28;20055;-74
2022/06/03 10:14:19;;;;;;;4.20;3.80;;;;;;;20.48;45.12;101550.19;5052087;28;20098;-74
2022/06/03 10:16:44;;;;;;;5.95;3.63;;;;;;;20.53;45.21;101540.03;5052062;28;20029;-75
2022/06/03 10:19:09;;;;;;;6.22;3.15;;;;;;;20.60;45.74;101545.22;5051644;28;20082;-75
2022/06/03 10:21:35;;;;;;;3.80;3.38;;;;;;;20.66;44.78;101538.66;5052071;28;20135;-73
2022/06/03 10:24:04;;;;;;;5.50;2.90;;;;;;;20.77;46.08;101528.47;5051904;28;20481;-73
2022/06/03 10:26:39;;;;;;;8.30;3.10;;;;;;;20.80;43.79;101527.91;5052099;28;20473;-74
2022/06/03 10:29:13;;;;;;;3.25;2.95;;;;;;;20.81;43.98;101524.06;5043882;28;20052;-74
2022/06/03 10:31:38;;;;;;;4.95;2.60;;;;;;;20.95;43.77;101515.25;5052150;28;20036;-74
2022/06/03 10:34:10;;;;;;;5.88;2.75;;;;;;;21.04;44.11;101519.88;5050710;28;20029;-74
2022/06/03 10:36:42;;;;;;;3.53;2.67;;;;;;;21.17;43.27;101515.72;5051696;28;20021;-74
2022/06/03 10:39:09;;;;;;;5.35;2.50;;;;;;;21.17;44.18;101506.66;5034210;28;20040;-72
2022/06/03 10:41:49;;;;;;;3.95;3.20;;;;;;;21.25;43.46;101519.81;5052113;28;20027;-74
2022/06/03 10:44:18;;;;;;;3.42;2.85;;;;;;;21.24;42.91;101515.41;5051376;28;20129;-77
2022/06/03 10:47:13;;;;;;;4.47;2.40;;;;;;;21.33;44.89;101524.78;5039723;28;20057;-78
2022/06/03 10:49:54;;;;;;;4.80;2.80;;;;;;;21.43;43.07;101519.19;5034437;28;20417;-72
2022/06/03 11:01:33;;;;;;;2.10;1.90;;;;;;;21.61;42.92;101514.19;5043944;28;20040;-77
2022/06/03 11:03:59;;;;;;;2.17;1.70;;;;;;;21.73;39.68;101506.41;5034016;28;20047;-77
2022/06/03 11:06:33;;;;;;;3.50;2.03;;;;;;;21.71;39.86;101499.53;5033810;28;20388;-75
2022/06/03 11:09:01;;;;;;;3.95;2.10;;;;;;;21.72;40.62;101504.75;5051865;28;20448;-78
2022/06/03 11:11:31;;;;;;;7.13;2.65;;;;;;;21.83;39.95;101494.53;5051319;28;20029;-79
2022/06/03 11:13:56;;;;;;;2.88;1.50;;;;;;;22.00;39.53;101494.13;5050421;28;20029;-81
2022/06/03 11:16:24;;;;;;;2.28;1.55;;;;;;;22.04;37.88;101502.63;5050164;28;20461;-80
2022/06/03 11:18:50;;;;;;;1.63;1.50;;;;;;;22.06;37.73;101498.47;5051754;28;20040;-81
2022/06/03 11:21:28;;;;;;;1.67;1.58;;;;;;;22.08;37.04;101496.25;5048659;28;20053;-76
2022/06/03 11:23:56;;;;;;;1.10;1.00;;;;;;;22.23;37.32;101495.31;5052002;28;20468;-79
2022/06/03 11:26:37;;;;;;;3.17;1.48;;;;;;;22.33;37.88;101496.38;5051662;28;20029;-77
2022/06/03 11:29:17;;;;;;;2.85;1.60;;;;;;;22.30;38.42;101487.53;5052652;28;20067;-77
2022/06/03 11:31:46;;;;;;;2.17;1.47;;;;;;;22.40;37.02;101485.84;5054823;28;20052;-76
2022/06/03 11:34:36;;;;;;;2.60;1.38;;;;;;;22.34;38.64;101482.28;5053551;28;20305;-78
2022/06/03 11:37:08;;;;;;;2.65;1.67;;;;;;;22.33;36.85;101486.19;5055179;28;20151;-76
2022/06/03 11:39:40;;;;;;;2.10;1.63;;;;;;;22.31;36.38;101488.38;5055392;28;20033;-74
2022/06/03 11:42:38;;;;;;;1.90;1.60;;;;;;;22.37;38.72;101487.22;5037189;28;20111;-76
2022/06/03 11:45:07;;;;;;;4.95;1.90;;;;;;;22.42;36.53;101484.44;5054269;28;20542;-73
2022/06/03 11:47:37;;;;;;;1.92;1.63;;;;;;;22.57;36.99;101488.16;5055205;28;20033;-76
2022/06/03 11:50:05;;;;;;;2.20;1.83;;;;;;;22.57;37.27;101488.16;5054647;28;20531;-76
2022/06/03 11:52:30;;;;;;;3.00;2.00;;;;;;;22.74;38.68;101479.44;5055074;28;20036;-74
2022/06/03 11:54:55;;;;;;;2.28;1.60;;;;;;;22.84;38.45;101495.88;5054943;28;20025;-75
2022/06/03 11:57:21;;;;;;;3.60;1.88;;;;;;;22.87;36.28;101489.75;5054736;28;20033;-75
2022/06/03 12:00:13;;;;;;;3.22;1.75;;;;;;;22.97;38.12;101497.94;5054985;28;20431;-74
2022/06/03 12:02:57;;;;;;;3.90;1.80;;;;;;;23.18;37.21;101498.56;5025247;28;20040;-77
2022/06/03 12:05:47;;;;;;;3.22;1.83;;;;;;;23.21;35.77;101504.63;5054662;28;20029;-75
2022/06/03 12:08:22;;;;;;;2.42;2.22;;;;;;;23.28;37.30;101494.00;5054463;28;20076;-74
2022/06/03 12:10:58;;;;;;;4.70;2.58;;;;;;;23.37;36.42;101497.78;5054871;28;20040;-73
2022/06/03 12:13:32;;;;;;;3.10;2.00;;;;;;;23.34;35.74;101481.78;5054338;28;20032;-75
2022/06/03 12:16:09;;;;;;;2.83;1.95;;;;;;;23.50;36.04;101479.66;5036686;28;20061;-77
2022/06/03 12:18:42;;;;;;;2.88;1.73;;;;;;;23.66;36.19;101477.50;5036650;28;20393;-78
2022/06/03 12:21:26;;;;;;;2.47;2.05;;;;;;;23.76;36.40;101476.53;5054247;28;20049;-74
2022/06/03 12:23:54;;;;;;;4.72;2.20;;;;;;;23.85;34.73;101481.13;5054761;28;20056;-77
2022/06/03 12:26:27;;;;;;;2.53;2.10;;;;;;;23.88;34.68;101480.53;5054197;28;20029;-75
2022/06/03 12:28:58;;;;;;;3.38;1.75;;;;;;;23.93;35.22;101473.25;5054387;28;20021;-77
2022/06/03 12:31:36;;;;;;;1.80;1.33;;;;;;;23.87;33.81;101462.28;5054060;28;20029;-75
2022/06/03 12:34:14;;;;;;;2.00;1.80;;;;;;;23.94;35.55;101472.94;5036361;28;20025;-74
2022/06/03 12:36:51;;;;;;;4.28;2.55;;;;;;;23.91;35.42;101458.91;5036282;28;20464;-74
2022/06/03 12:39:53;;;;;;;3.33;2.40;;;;;;;23.96;36.13;101465.19;5035952;28;20071;-77
2022/06/03 12:42:28;;;;;;;2.20;2.00;;;;;;;23.99;35.86;101459.06;5053270;28;20037;-74
2022/06/03 12:44:56;;;;;;;2.97;2.05;;;;;;;24.07;34.32;101457.56;5054083;28;20116;-77
2022/06/03 12:47:25;;;;;;;1.80;1.70;;;;;;;24.03;33.75;101462.03;5054105;28;20104;-75
2022/06/03 12:49:53;;;;;;;2.35;1.33;;;;;;;24.02;33.79;101454.84;5054040;28;20033;-74
2022/06/03 12:52:21;;;;;;;1.42;1.10;;;;;;;24.17;33.19;101460.16;5053671;28;20033;-76
2022/06/03 12:54:53;;;;;;;3.05;1.98;;;;;;;24.10;34.00;101454.19;5053989;28;20037;-74
2022/06/03 12:57:21;;;;;;;4.80;1.80;;;;;;;24.09;33.69;101455.28;5053651;28;20029;-72